Data for 01/28/2018

Time Sea-Level Adjusted Pressure Absolute Pressure Temperature Relative Humidity Dew Point   
(mb) (inHg) (mb) (inHg) (C) (F) (%) (C) (F)
00:05 1022 30.18 851 25.13 2.5 36.5 46 -7.9 17.8
00:10 1022 30.18 851 25.13 2.5 36.4 46 -7.9 17.8
00:15 1022 30.18 851 25.13 2.4 36.3 45 -8.3 17
00:20 1022 30.18 851 25.13 2.6 36.6 45 -8.3 17
00:25 1022 30.18 851 25.13 2.5 36.6 45 -8.1 17.3
00:30 1022 30.18 851 25.13 2.4 36.4 46 -8 17.6
00:35 1022 30.18 851 25.13 2.4 36.4 46 -8 17.6
00:40 1022 30.18 851 25.13 2.4 36.3 45 -8.4 16.9
00:45 1022 30.18 851 25.13 2.4 36.3 45 -8.4 16.9
00:50 1022 30.18 852 25.16 2.5 36.5 47 -7.6 18.4
00:55 1022 30.18 852 25.16 2.2 35.9 49 -7.6 18.4
01:00 1023 30.21 852 25.16 2 35.7 48 -7.8 18
01:05 1023 30.21 852 25.16 2.1 35.8 47 -8.1 17.5
01:10 1023 30.21 852 25.16 2.2 35.9 47 -7.9 17.8
01:15 1023 30.21 852 25.16 2.1 35.8 47 -7.9 17.8
01:20 1023 30.21 852 25.16 2.2 35.9 48 -7.8 18
01:25 1023 30.21 852 25.16 2.1 35.8 47 -7.9 17.7
01:30 1023 30.21 852 25.16 2.1 35.7 47 -8.1 17.4
01:35 1023 30.21 853 25.19 2.1 35.8 47 -7.9 17.7
01:40 1023 30.21 853 25.19 2.1 35.7 48 -7.9 17.8
01:45 1023 30.21 853 25.19 2 35.6 49 -7.7 18.2
01:50 1023 30.21 853 25.19 1.8 35.3 50 -7.5 18.5
01:55 1023 30.21 853 25.19 1.6 34.9 51 -7.5 18.6
02:00 1024 30.24 853 25.19 1.5 34.7 52 -7.3 18.9
02:05 1024 30.24 853 25.19 1.4 34.5 52 -7.4 18.7
02:10 1024 30.24 853 25.19 1.3 34.4 51 -7.8 17.9
02:15 1024 30.24 853 25.19 1.6 34.8 50 -7.8 18
02:20 1024 30.24 853 25.19 1.6 34.9 50 -7.8 17.9
02:25 1024 30.24 853 25.19 1.5 34.7 49 -8 17.5
02:30 1024 30.24 853 25.19 1.5 34.8 49 -8.2 17.3
02:35 1024 30.24 853 25.19 1.6 34.9 49 -8 17.5
02:40 1024 30.24 853 25.19 1.6 34.9 48 -8.2 17.3
02:45 1024 30.24 853 25.19 1.6 34.9 49 -8.1 17.4
02:50 1024 30.24 853 25.19 1.6 34.9 48 -8.2 17.2
02:55 1024 30.24 853 25.19 1.6 34.9 48 -8.2 17.2
03:00 1024 30.24 854 25.22 1.7 35 48 -8.2 17.3
03:05 1024 30.24 854 25.22 1.7 35.1 49 -8 17.6
03:10 1025 30.27 854 25.22 1.7 35 49 -7.9 17.8
03:15 1025 30.27 854 25.22 1.6 34.8 47 -8.5 16.7
03:20 1025 30.27 854 25.22 1.7 35 46 -8.6 16.5
03:25 1025 30.27 854 25.22 1.6 34.9 49 -8.1 17.5
03:30 1025 30.27 854 25.22 1.4 34.6 49 -8 17.5
03:35 1025 30.27 854 25.22 1.3 34.4 51 -7.9 17.9
03:40 1025 30.27 854 25.22 1.3 34.4 49 -8.3 17
03:45 1025 30.27 854 25.22 1.5 34.7 48 -8.4 16.8
03:50 1025 30.27 854 25.22 1.5 34.7 49 -8.1 17.5
03:55 1025 30.27 854 25.22 1.4 34.5 48 -8.4 16.9
04:00 1025 30.27 854 25.22 1.4 34.5 47 -8.6 16.5
04:05 1025 30.27 854 25.22 1.4 34.6 47 -8.6 16.6
04:10 1025 30.27 855 25.25 1.4 34.6 49 -8.2 17.2
04:15 1025 30.27 855 25.25 1.3 34.4 48 -8.6 16.6
04:20 1025 30.27 855 25.25 1.3 34.4 48 -8.4 16.8
04:25 1026 30.3 855 25.25 1.2 34.2 49 -8.4 16.9
04:30 1026 30.3 855 25.25 1.2 34.1 49 -8.4 16.8
04:35 1026 30.3 855 25.25 1.2 34.2 49 -8.2 17.2
04:40 1026 30.3 855 25.25 1.1 34 49 -8.3 17
04:45 1026 30.3 855 25.25 1 33.9 49 -8.6 16.6
04:50 1026 30.3 855 25.25 1.1 34 48 -8.6 16.5
04:55 1026 30.3 855 25.25 1 33.9 50 -8.2 17.2
05:00 1026 30.3 855 25.25 0.9 33.6 51 -8.1 17.4
05:05 1026 30.3 855 25.25 0.9 33.6 52 -7.8 17.9
05:10 1026 30.3 855 25.25 0.6 33.1 54 -7.7 18.2
05:15 1026 30.3 855 25.25 0.5 32.9 54 -7.7 18.2
05:20 1026 30.3 856 25.28 0.4 32.8 54 -7.7 18.1
05:25 1026 30.3 856 25.28 0.5 32.8 52 -8.3 17.1
05:30 1027 30.33 856 25.28 0.7 33.2 51 -8.2 17.2
05:35 1027 30.33 856 25.28 0.8 33.4 50 -8.6 16.5
05:40 1027 30.33 856 25.28 0.9 33.6 50 -8.4 16.8
05:45 1027 30.33 856 25.28 0.9 33.7 49 -8.5 16.6
05:50 1027 30.33 856 25.28 0.9 33.7 50 -8.4 16.8
05:55 1027 30.33 856 25.28 0.9 33.6 50 -8.4 16.9
06:00 1027 30.33 856 25.28 0.8 33.5 50 -8.5 16.8
06:05 1027 30.33 856 25.28 0.9 33.6 49 -8.7 16.4
06:10 1027 30.33 856 25.28 0.8 33.5 49 -8.6 16.5
06:15 1027 30.33 856 25.28 0.8 33.4 50 -8.6 16.5
06:20 1027 30.33 856 25.28 0.7 33.3 50 -8.6 16.5
06:25 1027 30.33 856 25.28 0.8 33.4 50 -8.6 16.5
06:30 1027 30.33 856 25.28 0.7 33.3 50 -8.5 16.7
06:35 1027 30.33 856 25.28 0.7 33.3 51 -8.4 17
06:40 1027 30.33 856 25.28 0.7 33.2 50 -8.6 16.5
06:45 1027 30.33 857 25.31 0.8 33.4 49 -8.9 16.1
06:50 1027 30.33 857 25.31 1 33.8 48 -8.8 16.1
06:55 1028 30.36 857 25.31 1 33.8 48 -8.9 16
07:00 1028 30.36 857 25.31 1 33.8 48 -8.8 16.1
07:05 1028 30.36 857 25.31 1 33.8 48 -8.7 16.3
07:10 1028 30.36 857 25.31 1 33.7 50 -8.4 16.8
07:15 1028 30.36 857 25.31 0.8 33.4 53 -7.7 18.1
07:20 1028 30.36 857 25.31 0.4 32.7 54 -8 17.6
07:25 1028 30.36 857 25.31 0.3 32.5 54 -8 17.6
07:30 1028 30.36 857 25.31 0.2 32.4 54 -8 17.6
07:35 1028 30.36 857 25.31 0.2 32.4 54 -8.1 17.5
07:40 1028 30.36 857 25.31 0.2 32.3 53 -8.3 17.1
07:45 1028 30.36 858 25.34 0.3 32.6 52 -8.3 17
07:50 1028 30.36 858 25.34 0.3 32.6 53 -8 17.5
07:55 1029 30.39 858 25.34 0.3 32.5 53 -8.1 17.4
08:00 1029 30.39 858 25.34 0.3 32.5 53 -8.1 17.4
08:05 1029 30.39 858 25.34 0.2 32.3 53 -8.3 17
08:10 1029 30.39 858 25.34 0.2 32.3 53 -8.2 17.2
08:15 1029 30.39 858 25.34 0.4 32.7 53 -8.2 17.3
08:20 1029 30.39 858 25.34 0.5 32.9 51 -8.4 16.8
08:25 1029 30.39 858 25.34 0.6 33 51 -8.4 16.9
08:30 1029 30.39 858 25.34 0.7 33.3 50 -8.4 16.8
08:35 1029 30.39 858 25.34 0.8 33.5 50 -8.4 16.8
08:40 1029 30.39 858 25.34 1 33.7 49 -8.6 16.4
08:45 1029 30.39 858 25.34 1.6 34.9 46 -8.8 16.2
08:50 1029 30.39 858 25.34 2.3 36.2 45 -8.4 16.9
08:55 1029 30.39 858 25.34 2.4 36.3 47 -7.9 17.7
09:00 1029 30.39 858 25.34 2.5 36.5 46 -8.1 17.4
09:05 1029 30.39 858 25.34 2.8 37.1 45 -7.8 17.9
09:10 1029 30.39 858 25.34 3 37.5 45 -7.8 17.9
09:15 1029 30.39 858 25.34 3.2 37.7 45 -7.7 18.2
09:20 1029 30.39 858 25.34 3.5 38.3 43 -8.1 17.5
09:25 1029 30.39 858 25.34 3.3 38 45 -7.6 18.3
09:30 1029 30.39 858 25.34 2.6 36.8 45 -8 17.5
09:35 1029 30.39 858 25.34 2.5 36.6 47 -7.8 18
09:40 1029 30.39 858 25.34 2.3 36.2 46 -8.1 17.4
09:45 1029 30.39 858 25.34 2.5 36.5 46 -8 17.6
09:50 1029 30.39 859 25.37 2.8 37 45 -7.9 17.7
09:55 1029 30.39 859 25.37 3 37.4 44 -8.2 17.3
10:00 1029 30.39 859 25.37 3 37.4 44 -7.9 17.7
10:05 1029 30.39 859 25.37 3.1 37.6 44 -8.1 17.5
10:10 1029 30.39 858 25.34 3.3 37.9 44 -7.8 17.9
10:15 1029 30.39 858 25.34 3.3 37.9 44 -7.9 17.9
10:20 1029 30.39 858 25.34 3.6 38.4 43 -7.8 18
10:25 1029 30.39 858 25.34 3.1 37.5 45 -7.7 18.1
10:30 1029 30.39 859 25.37 2.8 37.1 46 -7.7 18.2
10:35 1029 30.39 859 25.37 2.9 37.1 46 -7.6 18.3
10:40 1029 30.39 859 25.37 2.4 36.4 47 -7.7 18.1
10:45 1029 30.39 859 25.37 2.5 36.5 46 -7.9 17.8
10:50 1029 30.39 859 25.37 2.6 36.7 45 -8.1 17.5
10:55 1029 30.39 858 25.34 2.7 36.9 45 -8 17.6
11:00 1029 30.39 858 25.34 2.9 37.3 43 -8.4 16.8
11:05 1029 30.39 858 25.34 3.5 38.2 43 -8 17.6
11:10 1029 30.39 858 25.34 3.6 38.5 42 -8.1 17.4
11:15 1029 30.39 858 25.34 3.7 38.6 43 -7.9 17.8
11:20 1029 30.39 858 25.34 3.6 38.4 42 -8.1 17.5
11:25 1029 30.39 858 25.34 3.9 39 40 -8.6 16.6
11:30 1029 30.39 858 25.34 4 39.1 40 -8.3 17
11:35 1029 30.39 858 25.34 3.9 39.1 41 -8.2 17.3
11:40 1029 30.39 858 25.34 3.7 38.7 43 -7.6 18.3
11:45 1029 30.39 858 25.34 3.7 38.6 42 -8.2 17.3
11:50 1029 30.39 858 25.34 3.7 38.7 42 -8 17.7
11:55 1029 30.39 858 25.34 3.7 38.6 42 -8.1 17.4
12:00 1028 30.36 858 25.34 3.5 38.4 44 -7.7 18.2
12:05 1028 30.36 858 25.34 3.6 38.4 43 -7.8 17.9
12:10 1028 30.36 858 25.34 3.5 38.4 44 -7.6 18.4
12:15 1028 30.36 858 25.34 3.7 38.7 43 -7.6 18.3
12:20 1028 30.36 858 25.34 3.8 38.8 39 -8.9 16
12:25 1028 30.36 858 25.34 3.4 38.1 39 -9.2 15.5
12:30 1028 30.36 858 25.34 3.5 38.2 39 -9.2 15.5
12:35 1028 30.36 857 25.31 3.2 37.8 41 -8.7 16.4
12:40 1028 30.36 857 25.31 2.9 37.3 41 -9 15.8
12:45 1028 30.36 857 25.31 2.8 37.1 42 -8.9 16
12:50 1028 30.36 857 25.31 3 37.3 42 -8.6 16.5
12:55 1028 30.36 857 25.31 3.1 37.7 41 -8.8 16.1
13:00 1028 30.36 857 25.31 3.4 38.2 41 -8.5 16.7
13:05 1028 30.36 857 25.31 3.6 38.5 42 -8.2 17.3
13:10 1028 30.36 858 25.34 3.7 38.6 43 -7.7 18.1
13:15 1028 30.36 858 25.34 3.6 38.4 44 -7.7 18.1
13:20 1029 30.39 858 25.34 3.8 38.9 41 -8.1 17.4
13:25 1029 30.39 858 25.34 3.7 38.7 42 -7.9 17.8
13:30 1029 30.39 858 25.34 4.2 39.6 41 -7.8 18
13:35 1029 30.39 858 25.34 4.3 39.8 42 -7.5 18.5
13:40 1029 30.39 858 25.34 4.3 39.7 42 -7.6 18.3
13:45 1029 30.39 858 25.34 4.4 39.9 40 -8.1 17.4
13:50 1029 30.39 858 25.34 4.2 39.6 44 -6.9 19.5
13:55 1029 30.39 858 25.34 3.7 38.6 44 -7.6 18.4
14:00 1029 30.39 858 25.34 3 37.5 48 -7 19.5
14:05 1029 30.39 858 25.34 2.9 37.2 48 -7.1 19.2
14:10 1029 30.39 858 25.34 2.8 37.1 46 -7.7 18.1
14:15 1029 30.39 858 25.34 2.8 37.1 46 -7.6 18.4
14:20 1028 30.36 858 25.34 2.9 37.2 46 -7.5 18.5
14:25 1029 30.39 858 25.34 2.9 37.2 45 -7.9 17.7
14:30 1029 30.39 858 25.34 2.9 37.2 46 -7.5 18.5
14:35 1028 30.36 858 25.34 2.9 37.2 48 -7.2 19.1
14:40 1029 30.39 858 25.34 2.9 37.1 47 -7.4 18.8
14:45 1029 30.39 858 25.34 2.9 37.3 47 -7.4 18.6
14:50 1029 30.39 858 25.34 3 37.3 47 -7.2 19.1
14:55 1028 30.36 858 25.34 3.1 37.6 47 -7.2 19
15:00 1028 30.36 858 25.34 3.3 37.9 45 -7.6 18.3
15:05 1029 30.39 858 25.34 3.2 37.8 46 -7.2 19
15:10 1029 30.39 858 25.34 3.1 37.6 45 -7.8 17.9
15:15 1029 30.39 858 25.34 3.3 37.9 44 -7.8 17.9
15:20 1029 30.39 858 25.34 3.3 38 44 -7.7 18.1
15:25 1029 30.39 858 25.34 3.5 38.3 46 -7.1 19.3
15:30 1029 30.39 858 25.34 3.7 38.7 44 -7.5 18.4
15:35 1029 30.39 858 25.34 3.7 38.7 44 -7.4 18.7
15:40 1029 30.39 858 25.34 3.7 38.7 45 -7.3 18.9
15:45 1029 30.39 858 25.34 3.6 38.5 46 -6.9 19.6
15:50 1029 30.39 858 25.34 3.8 38.8 43 -7.6 18.4
15:55 1029 30.39 858 25.34 3.9 38.9 45 -7 19.3
16:00 1029 30.39 858 25.34 3.6 38.4 47 -6.8 19.7
16:05 1029 30.39 858 25.34 3.3 38 47 -6.9 19.6
16:10 1029 30.39 858 25.34 3.2 37.7 48 -6.9 19.7
16:15 1029 30.39 858 25.34 3 37.4 49 -6.8 19.7
16:20 1029 30.39 858 25.34 2.9 37.2 48 -7.1 19.2
16:25 1029 30.39 858 25.34 2.8 37.1 48 -7 19.3
16:30 1029 30.39 858 25.34 2.7 36.8 49 -6.9 19.6
16:35 1029 30.39 858 25.34 2.6 36.7 51 -6.6 20.1
16:40 1029 30.39 858 25.34 2.5 36.5 50 -6.9 19.6
16:45 1029 30.39 858 25.34 2.5 36.5 52 -6.4 20.5
16:50 1029 30.39 858 25.34 2.5 36.4 52 -6.3 20.7
16:55 1029 30.39 858 25.34 2.2 36 52 -6.7 19.9
17:00 1029 30.39 858 25.34 2 35.6 54 -6.3 20.6
17:05 1029 30.39 858 25.34 1.8 35.2 56 -6.2 20.8
17:10 1029 30.39 858 25.34 1.9 35.3 54 -6.6 20.1
17:15 1028 30.36 858 25.34 2.1 35.7 52 -6.8 19.8
17:20 1028 30.36 858 25.34 2.1 35.8 54 -6.3 20.7
17:25 1029 30.39 858 25.34 2.1 35.9 54 -6.1 21
17:30 1028 30.36 858 25.34 2.1 35.8 54 -6.3 20.7
17:35 1028 30.36 858 25.34 2 35.7 54 -6.2 20.8
17:40 1028 30.36 858 25.34 2.1 35.8 55 -6.1 21.1
17:45 1028 30.36 858 25.34 2.1 35.8 54 -6.2 20.9
17:50 1028 30.36 858 25.34 2 35.7 53 -6.5 20.3
17:55 1028 30.36 858 25.34 2.2 35.9 56 -5.7 21.8
18:00 1028 30.36 857 25.31 1.9 35.4 57 -5.9 21.5
18:05 1028 30.36 857 25.31 1.6 34.8 57 -6.1 21
18:10 1028 30.36 857 25.31 1.5 34.7 57 -6.2 20.8
18:15 1028 30.36 857 25.31 1.6 35 57 -5.9 21.4
18:20 1028 30.36 857 25.31 1.6 34.9 57 -6 21.2
18:25 1028 30.36 857 25.31 1.8 35.2 58 -5.7 21.7
18:30 1028 30.36 857 25.31 2 35.5 55 -6.1 21.1
18:35 1028 30.36 857 25.31 2.1 35.8 55 -6.1 21.1
18:40 1028 30.36 857 25.31 2.2 36 53 -6.3 20.7
18:45 1028 30.36 857 25.31 2.7 36.9 52 -6.3 20.7
18:50 1028 30.36 857 25.31 2.9 37.3 52 -6.1 21
18:55 1028 30.36 857 25.31 3 37.4 53 -5.8 21.6
19:00 1028 30.36 857 25.31 2.9 37.1 54 -5.5 22
19:05 1028 30.36 857 25.31 2.7 36.9 56 -5.3 22.5
19:10 1028 30.36 857 25.31 2.6 36.6 54 -5.9 21.3
19:15 1028 30.36 857 25.31 2.7 36.9 55 -5.5 22.1
19:20 1028 30.36 857 25.31 2.9 37.2 54 -5.4 22.2
19:25 1028 30.36 857 25.31 2.9 37.2 54 -5.6 21.9
19:30 1028 30.36 857 25.31 2.9 37.2 54 -5.5 22.1
19:35 1028 30.36 857 25.31 3.1 37.6 54 -5.3 22.4
19:40 1028 30.36 857 25.31 3.1 37.7 53 -5.6 21.9
19:45 1028 30.36 857 25.31 3.2 37.8 53 -5.6 22
19:50 1028 30.36 857 25.31 3.4 38.1 51 -5.7 21.7
19:55 1028 30.36 857 25.31 3.6 38.5 50 -6 21.3
20:00 1028 30.36 857 25.31 3.7 38.7 50 -5.6 21.9
20:05 1028 30.36 857 25.31 3.8 38.8 51 -5.5 22.1
20:10 1028 30.36 857 25.31 3.8 38.9 51 -5.5 22.2
20:15 1028 30.36 857 25.31 3.8 38.9 52 -5.1 22.8
20:20 1028 30.36 857 25.31 3.8 38.8 53 -4.9 23.1
20:25 1028 30.36 857 25.31 3.7 38.6 55 -4.6 23.7
20:30 1028 30.36 857 25.31 3.7 38.6 55 -4.6 23.7
20:35 1028 30.36 857 25.31 3.6 38.5 56 -4.5 23.9
20:40 1028 30.36 857 25.31 3.8 38.8 55 -4.5 23.9
20:45 1028 30.36 857 25.31 3.8 38.9 55 -4.5 24
20:50 1028 30.36 857 25.31 3.9 39 52 -5.1 22.8
20:55 1028 30.36 857 25.31 4.1 39.4 52 -4.9 23.2
21:00 1028 30.36 857 25.31 4.2 39.5 51 -5 23
21:05 1028 30.36 857 25.31 4.2 39.5 51 -4.9 23.1
21:10 1028 30.36 857 25.31 4.2 39.6 51 -4.9 23.2
21:15 1028 30.36 857 25.31 4.1 39.4 53 -4.6 23.7
21:20 1028 30.36 857 25.31 3.7 38.7 53 -4.9 23.3
21:25 1028 30.36 857 25.31 3.7 38.7 54 -4.7 23.5
21:30 1028 30.36 857 25.31 3.7 38.6 54 -4.7 23.5
21:35 1028 30.36 857 25.31 4 39.1 53 -4.8 23.4
21:40 1028 30.36 857 25.31 4.4 39.9 52 -4.7 23.6
21:45 1028 30.36 857 25.31 4.7 40.4 51 -4.6 23.7
21:50 1028 30.36 857 25.31 4.5 40.1 52 -4.5 23.9
21:55 1028 30.36 857 25.31 4.1 39.5 53 -4.7 23.6
22:00 1028 30.36 857 25.31 4 39.2 54 -4.6 23.8
22:05 1028 30.36 857 25.31 3.9 39 55 -4.4 24
22:10 1028 30.36 857 25.31 3.8 38.9 54 -4.7 23.6
22:15 1028 30.36 857 25.31 3.8 38.9 54 -4.7 23.6
22:20 1028 30.36 857 25.31 3.8 38.9 54 -4.7 23.5
22:25 1028 30.36 857 25.31 4.1 39.4 53 -4.6 23.7
22:30 1028 30.36 857 25.31 4.4 39.8 52 -4.6 23.7
22:35 1028 30.36 857 25.31 4.4 40 52 -4.5 23.9
22:40 1028 30.36 857 25.31 4.3 39.8 53 -4.5 23.9
22:45 1028 30.36 857 25.31 4.5 40.1 52 -4.5 23.9
22:50 1028 30.36 857 25.31 4.8 40.7 51 -4.4 24.1
22:55 1028 30.36 857 25.31 4.8 40.7 52 -4.3 24.3
23:00 1028 30.36 857 25.31 4.7 40.4 53 -4.2 24.5
23:05 1028 30.36 857 25.31 4.4 39.9 53 -4.2 24.4
23:10 1028 30.36 857 25.31 4.3 39.7 54 -4.2 24.5
23:15 1028 30.36 857 25.31 4.2 39.6 54 -4.2 24.4
23:20 1028 30.36 857 25.31 4.1 39.5 55 -4.2 24.4
23:25 1028 30.36 857 25.31 4.1 39.4 55 -4.1 24.6
23:30 1027 30.33 857 25.31 4.3 39.7 54 -4.2 24.4
23:35 1027 30.33 857 25.31 4.4 39.9 55 -3.9 25
23:40 1027 30.33 857 25.31 4.4 39.9 55 -3.9 24.9
23:45 1027 30.33 857 25.31 4.6 40.2 54 -4 24.9
23:50 1027 30.33 857 25.31 4.8 40.7 53 -3.9 25
23:55 1027 30.33 856 25.28 4.7 40.5 54 -3.8 25.2
24:00 1027 30.33 856 25.28 4.7 40.4 52 -4.2 24.4